createdAt,value
2022-11-07T00:01:52.323Z,99874.66
2022-11-07T00:04:19.946Z,99864.88
2022-11-07T00:06:48.136Z,99874.06
2022-11-07T00:09:15.772Z,99869.66
2022-11-07T00:11:43.399Z,99869.63
2022-11-07T00:14:12.499Z,99884.34
2022-11-07T00:16:41.524Z,99873.59
2022-11-07T00:19:09.178Z,99875.34
2022-11-07T00:21:38.256Z,99871.50
2022-11-07T00:24:06.872Z,99887.59
2022-11-07T00:26:34.992Z,99873.81
2022-11-07T00:29:03.078Z,99887.94
2022-11-07T00:31:30.869Z,99881.28
2022-11-07T00:33:59.790Z,99886.19
2022-11-07T00:36:29.507Z,99890.38
2022-11-07T00:38:57.135Z,99889.59
2022-11-07T00:41:25.178Z,99900.78
2022-11-07T00:43:52.875Z,99887.69
2022-11-07T00:46:21.113Z,99900.78
2022-11-07T00:48:49.733Z,99902.63
2022-11-07T00:51:20.255Z,99897.75
2022-11-07T00:53:48.266Z,99904.16
2022-11-07T00:56:17.935Z,99910.22
2022-11-07T00:58:45.854Z,99915.59
2022-11-07T01:01:16.349Z,99921.63
2022-11-07T01:04:02.446Z,99921.63
2022-11-07T01:06:33.530Z,99923.75
2022-11-07T01:09:01.061Z,99916.72
2022-11-07T01:11:30.232Z,99898.06
2022-11-07T01:13:59.046Z,99918.59
2022-11-07T01:16:27.243Z,99924.28
2022-11-07T01:18:56.234Z,99919.75
2022-11-07T01:21:24.140Z,99921.84
2022-11-07T01:23:53.329Z,99926.97
2022-11-07T01:26:21.426Z,99933.03
2022-11-07T01:28:48.969Z,99927.69
2022-11-07T01:31:19.342Z,99929.66
2022-11-07T01:33:47.230Z,99935.16
2022-11-07T01:36:17.225Z,99939.38
2022-11-07T01:38:48.596Z,99939.84
2022-11-07T01:41:25.374Z,99930.72
2022-11-07T01:43:58.106Z,99932.38
2022-11-07T01:46:30.358Z,99931.31
2022-11-07T01:49:03.967Z,99936.81
2022-11-07T01:51:33.409Z,99936.22
2022-11-07T01:54:01.375Z,99930.38
2022-11-07T01:56:33.183Z,99930.28
2022-11-07T01:59:01.216Z,99925.06
2022-11-07T02:01:29.051Z,99925.97
2022-11-07T02:03:57.825Z,99927.72
2022-11-07T02:06:30.161Z,99927.63
2022-11-07T02:08:57.782Z,99939.81
2022-11-07T02:11:25.775Z,99932.59
2022-11-07T02:13:54.890Z,99936.00
2022-11-07T02:16:23.418Z,99943.34
2022-11-07T02:18:51.579Z,99943.34
2022-11-07T02:21:27.833Z,99939.16
2022-11-07T02:23:59.685Z,99935.63
2022-11-07T02:26:28.961Z,99943.56
2022-11-07T02:28:57.330Z,99946.56
2022-11-07T02:31:25.286Z,99925.56
2022-11-07T02:33:52.850Z,99938.38
2022-11-07T02:36:23.137Z,99929.28
2022-11-07T02:38:57.336Z,99938.84
2022-11-07T02:41:26.778Z,99913.41
2022-11-07T02:43:58.806Z,99933.03
2022-11-07T02:46:27.263Z,99935.91
2022-11-07T02:48:56.982Z,99936.63
2022-11-07T02:51:25.247Z,99929.53
2022-11-07T02:53:53.293Z,99937.66
2022-11-07T02:56:21.429Z,99954.47
2022-11-07T02:58:49.425Z,99942.59
2022-11-07T03:01:19.755Z,99949.94
2022-11-07T03:03:49.431Z,99942.13
2022-11-07T03:06:21.006Z,99947.41
2022-11-07T03:08:48.843Z,99947.75
2022-11-07T03:11:19.894Z,99951.47
2022-11-07T03:13:48.395Z,99955.56
2022-11-07T03:16:17.153Z,99946.94
2022-11-07T03:18:46.008Z,99954.00
2022-11-07T03:21:13.676Z,99953.13
2022-11-07T03:23:41.414Z,99958.47
2022-11-07T03:26:10.254Z,99969.22
2022-11-07T03:28:37.850Z,99955.09
2022-11-07T03:31:05.863Z,99960.09
2022-11-07T03:33:33.971Z,99968.25
2022-11-07T03:36:03.056Z,99967.78
2022-11-07T03:38:30.750Z,99968.47
2022-11-07T03:40:58.618Z,99967.31
2022-11-07T03:43:26.175Z,99971.16
2022-11-07T03:45:53.735Z,99973.16
2022-11-07T03:48:21.706Z,99974.78
2022-11-07T03:50:49.362Z,99975.94
2022-11-07T03:53:24.824Z,99974.81
2022-11-07T03:55:55.458Z,99976.41
2022-11-07T03:58:23.559Z,99983.44
2022-11-07T04:00:51.169Z,99974.31
2022-11-07T04:03:18.792Z,99982.50
2022-11-07T04:05:46.335Z,99973.84
2022-11-07T04:08:14.072Z,99981.31
2022-11-07T04:10:44.295Z,99971.63
2022-11-07T04:13:37.866Z,99977.94
2022-11-07T04:16:23.304Z,99974.69
2022-11-07T04:18:51.003Z,99976.66
2022-11-07T04:21:18.534Z,99976.09
2022-11-07T04:23:46.090Z,99977.25
2022-11-07T04:26:32.916Z,99971.66
2022-11-07T04:29:00.510Z,99984.38
2022-11-07T04:31:28.807Z,99980.19
2022-11-07T04:33:56.441Z,99989.38
2022-11-07T04:36:23.925Z,99994.19
2022-11-07T04:38:51.607Z,99985.66
2022-11-07T04:41:24.181Z,99985.56
2022-11-07T04:43:52.257Z,99996.63
2022-11-07T04:46:20.190Z,100003.25
2022-11-07T04:48:47.762Z,99997.44
2022-11-07T04:51:16.228Z,100002.22
2022-11-07T04:53:44.301Z,99981.47
2022-11-07T04:56:12.680Z,99984.28
2022-11-07T04:58:41.845Z,99979.72
2022-11-07T05:01:09.415Z,99976.44
2022-11-07T05:03:41.831Z,99983.81
2022-11-07T05:06:11.613Z,99989.97
2022-11-07T05:08:39.703Z,99987.28
2022-11-07T05:11:08.394Z,99982.53
2022-11-07T05:13:36.253Z,99982.75
2022-11-07T05:16:06.374Z,99984.13
2022-11-07T05:18:34.055Z,99980.53
2022-11-07T05:21:01.636Z,99976.53
2022-11-07T05:23:28.476Z,99983.81
2022-11-07T05:25:56.833Z,99985.78
2022-11-07T05:28:35.192Z,99985.31
2022-11-07T05:31:06.895Z,99992.06
2022-11-07T05:33:35.414Z,99995.00
2022-11-07T05:36:13.535Z,99986.38
2022-11-07T05:38:43.631Z,99991.38
2022-11-07T05:41:14.170Z,99983.09
2022-11-07T05:43:41.774Z,99987.28
2022-11-07T05:46:11.679Z,99993.50
2022-11-07T05:48:39.877Z,99993.13
2022-11-07T05:51:08.465Z,99994.06
2022-11-07T05:53:36.691Z,99997.91
2022-11-07T05:56:06.306Z,99988.69
2022-11-07T05:58:33.881Z,100004.34
2022-11-07T06:01:02.833Z,99999.31
2022-11-07T06:03:33.234Z,99992.78
2022-11-07T06:06:00.813Z,100005.94
2022-11-07T06:08:28.342Z,99998.72
2022-11-07T06:10:55.955Z,100011.56
2022-11-07T06:13:23.516Z,99999.31
2022-11-07T06:15:51.055Z,100002.13
2022-11-07T06:18:20.204Z,99995.09
2022-11-07T06:20:49.293Z,100006.66
2022-11-07T06:23:17.525Z,100016.69
2022-11-07T06:25:45.394Z,100020.06
2022-11-07T06:28:14.577Z,100026.22
2022-11-07T06:30:42.718Z,100019.00
2022-11-07T06:33:13.818Z,100021.94
2022-11-07T06:35:41.907Z,100023.09
2022-11-07T06:38:12.674Z,100022.19
2022-11-07T06:40:41.161Z,100029.38
2022-11-07T06:43:10.429Z,100030.56
2022-11-07T06:45:39.018Z,100029.25
2022-11-07T06:48:07.865Z,100028.41
2022-11-07T06:50:35.639Z,100033.78
2022-11-07T06:53:03.877Z,100035.41
2022-11-07T06:55:34.904Z,100032.41
2022-11-07T06:58:02.628Z,100030.44
2022-11-07T07:00:30.864Z,100035.81
2022-11-07T07:02:59.406Z,100025.41
2022-11-07T07:05:27.690Z,100036.50
2022-11-07T07:07:56.313Z,100034.41
2022-11-07T07:10:25.483Z,100042.22
2022-11-07T07:12:56.674Z,100035.72
2022-11-07T07:15:24.602Z,100040.94
2022-11-07T07:17:52.171Z,100043.50
2022-11-07T07:20:19.753Z,100054.34
2022-11-07T07:22:51.664Z,100043.16
2022-11-07T07:25:24.489Z,100044.34
2022-11-07T07:27:52.328Z,100050.88
2022-11-07T07:30:21.681Z,100051.56
2022-11-07T07:32:50.537Z,100048.31
2022-11-07T07:35:18.474Z,100058.22
2022-11-07T07:37:50.457Z,100055.81
2022-11-07T07:40:18.042Z,100050.28
2022-11-07T07:42:46.034Z,100054.47
2022-11-07T07:45:16.889Z,100062.91
2022-11-07T07:47:46.083Z,100064.19
2022-11-07T07:50:14.194Z,100067.44
2022-11-07T07:52:42.320Z,100061.25
2022-11-07T07:55:11.544Z,100065.78
2022-11-07T07:57:40.618Z,100069.19
2022-11-07T08:00:09.721Z,100060.63
2022-11-07T08:02:37.550Z,100066.72
2022-11-07T08:05:07.651Z,100063.06
2022-11-07T08:07:36.169Z,100066.94
2022-11-07T08:10:27.094Z,100070.50
2022-11-07T08:12:53.529Z,100072.97
2022-11-07T08:15:21.604Z,100072.16
2022-11-07T08:17:49.919Z,100071.22
2022-11-07T08:20:20.944Z,100072.72
2022-11-07T08:22:48.450Z,100071.63
2022-11-07T08:25:16.511Z,100070.59
2022-11-07T08:27:45.058Z,100073.69
2022-11-07T08:30:17.944Z,100077.69
2022-11-07T08:32:46.103Z,100075.41
2022-11-07T08:35:14.091Z,100076.78
2022-11-07T08:37:43.235Z,100072.81
2022-11-07T08:40:12.002Z,100070.13
2022-11-07T08:42:39.515Z,100078.28
2022-11-07T08:45:08.462Z,100070.78
2022-11-07T08:47:37.483Z,100075.78
2022-11-07T08:50:06.001Z,100066.38
2022-11-07T08:52:35.614Z,100074.13
2022-11-07T08:55:04.675Z,100066.38
2022-11-07T08:57:32.239Z,100068.28
2022-11-07T08:59:59.760Z,100074.78
2022-11-07T09:05:15.862Z,100077.38
2022-11-07T09:07:43.537Z,100074.31
2022-11-07T09:10:12.820Z,100077.00
2022-11-07T09:12:45.591Z,100073.66
2022-11-07T09:15:13.441Z,100081.25
2022-11-07T09:17:41.151Z,100080.25
2022-11-07T09:20:09.850Z,100087.59
2022-11-07T09:22:37.740Z,100089.81
2022-11-07T09:25:05.786Z,100089.69
2022-11-07T09:27:35.851Z,100101.13
2022-11-07T09:30:03.796Z,100106.25
2022-11-07T09:32:44.476Z,100107.88
2022-11-07T09:35:13.385Z,100110.09
2022-11-07T09:37:41.913Z,100103.56
2022-11-07T09:40:21.220Z,100111.22
2022-11-07T09:42:59.484Z,100112.50
2022-11-07T09:45:29.060Z,100111.59
2022-11-07T09:48:00.623Z,100118.16
2022-11-07T09:50:30.935Z,100117.91
2022-11-07T09:53:02.858Z,100117.28
2022-11-07T09:55:32.370Z,100122.13
2022-11-07T09:58:02.484Z,100127.16
2022-11-07T10:00:31.694Z,100130.75
2022-11-07T10:03:00.531Z,100113.00
2022-11-07T10:05:33.077Z,100121.56
2022-11-07T10:08:03.479Z,100130.06
2022-11-07T10:10:39.598Z,100119.78
2022-11-07T10:13:43.723Z,100122.47
2022-11-07T10:16:19.772Z,100124.28
2022-11-07T10:18:58.566Z,100121.97
2022-11-07T10:21:39.560Z,100133.38
2022-11-07T10:24:23.450Z,100142.84
2022-11-07T10:26:52.277Z,100122.19
2022-11-07T10:29:21.773Z,100133.38
2022-11-07T10:31:55.178Z,100131.28
2022-11-07T10:34:28.303Z,100135.63
2022-11-07T10:36:56.148Z,100134.41
2022-11-07T10:39:24.458Z,100142.78
2022-11-07T10:41:58.915Z,100135.59
2022-11-07T10:44:28.090Z,100139.09
2022-11-07T10:46:57.145Z,100127.44
2022-11-07T10:49:27.727Z,100142.28
2022-11-07T10:51:56.674Z,100149.66
2022-11-07T10:54:28.883Z,100140.44
2022-11-07T10:57:04.084Z,100133.50
2022-11-07T10:59:36.202Z,100144.41
2022-11-07T11:02:20.770Z,100156.44
2022-11-07T11:04:51.192Z,100157.00
2022-11-07T11:07:25.615Z,100153.19
2022-11-07T11:09:58.403Z,100162.59
2022-11-07T11:12:28.708Z,100156.97
2022-11-07T11:15:12.957Z,100155.97
2022-11-07T11:17:42.757Z,100159.84
2022-11-07T11:20:29.528Z,100153.63
2022-11-07T11:22:57.042Z,100153.38
2022-11-07T11:25:25.378Z,100144.97
2022-11-07T11:27:57.462Z,100146.63
2022-11-07T11:30:25.363Z,100149.50
2022-11-07T11:32:59.679Z,100143.69
2022-11-07T11:35:40.410Z,100149.34
2022-11-07T11:38:14.140Z,100164.09
2022-11-07T11:40:47.063Z,100155.25
2022-11-07T11:43:21.643Z,100155.69
2022-11-07T11:46:01.953Z,100147.03
2022-11-07T11:48:34.778Z,100150.06
2022-11-07T11:51:06.231Z,100156.44
2022-11-07T11:53:33.920Z,100151.03
2022-11-07T11:56:27.642Z,100155.94
2022-11-07T11:59:08.779Z,100157.06
2022-11-07T12:01:44.256Z,100155.72
2022-11-07T12:04:33.091Z,100149.69
2022-11-07T12:07:05.001Z,100161.72
2022-11-07T12:09:37.820Z,100157.81
2022-11-07T12:12:27.318Z,100163.88
2022-11-07T12:15:04.501Z,100158.41
2022-11-07T12:17:37.965Z,100158.28
2022-11-07T12:20:15.311Z,100156.84
2022-11-07T12:22:51.443Z,100149.31
2022-11-07T12:25:22.768Z,100152.69
2022-11-07T12:27:58.338Z,100157.41
2022-11-07T12:30:31.198Z,100153.28
2022-11-07T12:33:07.118Z,100146.44
2022-11-07T12:35:44.206Z,100156.06
2022-11-07T12:38:40.939Z,100157.03
2022-11-07T12:41:13.879Z,100163.03
2022-11-07T12:43:56.127Z,100159.47
2022-11-07T12:46:27.599Z,100165.25
2022-11-07T12:49:08.877Z,100162.84
2022-11-07T12:51:48.314Z,100154.53
2022-11-07T12:54:41.539Z,100165.19
2022-11-07T12:57:16.042Z,100161.91
2022-11-07T12:59:47.039Z,100160.41
2022-11-07T13:02:23.378Z,100162.00
2022-11-07T13:04:56.610Z,100155.47
2022-11-07T13:07:29.690Z,100147.88
2022-11-07T13:10:01.420Z,100144.38
2022-11-07T13:12:32.897Z,100141.03
2022-11-07T13:15:00.595Z,100144.59
2022-11-07T13:17:39.955Z,100133.91
2022-11-07T13:20:23.488Z,100141.25
2022-11-07T13:22:53.628Z,100152.44
2022-11-07T13:25:29.477Z,100146.25
2022-11-07T13:28:26.155Z,100148.88
2022-11-07T13:31:05.018Z,100148.38
2022-11-07T13:33:37.275Z,100152.19
2022-11-07T13:36:15.516Z,100149.00
2022-11-07T13:38:49.538Z,100161.34
2022-11-07T13:41:17.822Z,100149.34
2022-11-07T13:43:49.054Z,100150.72
2022-11-07T13:46:24.056Z,100153.97
2022-11-07T13:48:54.041Z,100156.34
2022-11-07T13:51:24.703Z,100155.13
2022-11-07T13:54:02.620Z,100161.50
2022-11-07T13:56:33.937Z,100162.88
2022-11-07T13:59:04.955Z,100156.66
2022-11-07T14:01:43.545Z,100161.50
2022-11-07T14:04:18.663Z,100157.16
2022-11-07T14:06:47.924Z,100151.84
2022-11-07T14:09:19.153Z,100162.34
2022-11-07T14:11:47.464Z,100162.22
2022-11-07T14:14:15.248Z,100155.19
2022-11-07T14:16:46.498Z,100156.06
2022-11-07T14:19:17.387Z,100154.13
2022-11-07T14:21:47.106Z,100153.09
2022-11-07T14:24:32.780Z,100147.34
2022-11-07T14:27:06.081Z,100150.31
2022-11-07T14:29:33.784Z,100150.81
2022-11-07T14:32:03.336Z,100147.75
2022-11-07T14:34:31.330Z,100155.13
2022-11-07T14:37:00.806Z,100151.63
2022-11-07T14:39:33.106Z,100158.09
2022-11-07T14:42:03.427Z,100166.72
2022-11-07T14:44:53.322Z,100157.16
2022-11-07T14:47:24.755Z,100158.81
2022-11-07T14:49:53.434Z,100157.03
2022-11-07T14:52:24.470Z,100165.09
2022-11-07T14:54:59.998Z,100165.03
2022-11-07T14:57:27.697Z,100163.84
2022-11-07T14:59:55.505Z,100167.66
2022-11-07T15:02:27.768Z,100166.34
2022-11-07T15:05:04.198Z,100159.16
2022-11-07T15:07:36.408Z,100155.72
2022-11-07T15:10:16.523Z,100159.66
2022-11-07T15:12:51.591Z,100167.66
2022-11-07T15:15:21.807Z,100161.84
2022-11-07T15:17:50.886Z,100167.16
2022-11-07T15:20:22.670Z,100167.66
2022-11-07T15:22:50.412Z,100161.63
2022-11-07T15:25:39.167Z,100163.25
2022-11-07T15:28:20.299Z,100164.41
2022-11-07T15:30:48.678Z,100154.19
2022-11-07T15:33:18.135Z,100159.00
2022-11-07T15:35:47.848Z,100173.00
2022-11-07T15:38:19.504Z,100164.41
2022-11-07T15:40:49.774Z,100160.81
2022-11-07T15:43:17.374Z,100164.25
2022-11-07T15:45:46.439Z,100164.09
2022-11-07T15:48:17.740Z,100163.69
2022-11-07T15:50:47.232Z,100169.47
2022-11-07T15:53:17.656Z,100169.63
2022-11-07T15:55:45.354Z,100162.44
2022-11-07T15:58:16.239Z,100168.91
2022-11-07T16:00:44.165Z,100172.09
2022-11-07T16:03:16.338Z,100161.78
2022-11-07T16:05:45.984Z,100164.41
2022-11-07T16:08:19.168Z,100169.00
2022-11-07T16:10:48.222Z,100179.63
2022-11-07T16:13:17.450Z,100173.78
2022-11-07T16:15:47.635Z,100175.50
2022-11-07T16:18:17.850Z,100177.16
2022-11-07T16:20:46.035Z,100179.34
2022-11-07T16:23:14.121Z,100177.66
2022-11-07T16:25:42.988Z,100174.38
2022-11-07T16:28:24.743Z,100175.34
2022-11-07T16:30:53.030Z,100186.38
2022-11-07T16:33:20.918Z,100192.41
2022-11-07T16:35:49.760Z,100193.47
2022-11-07T16:38:19.586Z,100195.09
2022-11-07T16:40:48.246Z,100194.13
2022-11-07T16:43:15.877Z,100189.22
2022-11-07T16:45:47.806Z,100196.91
2022-11-07T16:48:20.981Z,100190.72
2022-11-07T16:50:48.703Z,100199.34
2022-11-07T16:53:17.449Z,100194.06
2022-11-07T16:55:50.740Z,100191.34
2022-11-07T16:58:25.110Z,100184.56
2022-11-07T17:00:55.407Z,100186.69
2022-11-07T17:03:24.222Z,100193.47
2022-11-07T17:05:53.161Z,100191.59
2022-11-07T17:08:22.748Z,100192.34
2022-11-07T17:10:51.462Z,100203.44
2022-11-07T17:13:19.431Z,100187.25
2022-11-07T17:15:48.040Z,100197.72
2022-11-07T17:18:21.914Z,100187.78
2022-11-07T17:20:51.615Z,100189.22
2022-11-07T17:23:25.257Z,100186.72
2022-11-07T17:25:59.715Z,100201.97
2022-11-07T17:28:27.313Z,100205.56
2022-11-07T17:30:55.101Z,100205.22
2022-11-07T17:33:24.104Z,100202.03
2022-11-07T17:35:55.358Z,100201.72
2022-11-07T17:38:25.451Z,100217.47
2022-11-07T17:40:53.537Z,100205.72
2022-11-07T17:43:21.234Z,100216.91
2022-11-07T17:45:48.994Z,100212.72
2022-11-07T17:48:18.073Z,100212.00
2022-11-07T17:50:48.610Z,100207.34
2022-11-07T17:53:17.035Z,100225.47
2022-11-07T17:55:44.874Z,100224.47
2022-11-07T17:58:12.583Z,100218.59
2022-11-07T18:00:40.433Z,100226.59
2022-11-07T18:03:08.200Z,100219.09
2022-11-07T18:05:36.164Z,100224.16
2022-11-07T18:08:07.250Z,100224.28
2022-11-07T18:10:36.886Z,100226.47
2022-11-07T18:13:05.508Z,100225.72
2022-11-07T18:15:33.081Z,100227.97
2022-11-07T18:18:00.654Z,100226.31
2022-11-07T18:20:28.980Z,100225.97
2022-11-07T18:22:56.647Z,100228.56
2022-11-07T18:25:27.433Z,100224.69
2022-11-07T18:27:55.198Z,100224.94
2022-11-07T18:30:23.530Z,100214.31
2022-11-07T18:32:51.134Z,100229.03
2022-11-07T18:35:20.929Z,100219.56
2022-11-07T18:37:48.508Z,100225.31
2022-11-07T18:40:16.489Z,100222.72
2022-11-07T18:42:47.226Z,100227.06
2022-11-07T18:45:15.134Z,100223.31
2022-11-07T18:47:43.933Z,100225.53
2022-11-07T18:50:11.844Z,100228.44
2022-11-07T18:52:40.417Z,100223.50
2022-11-07T18:55:09.562Z,100221.63
2022-11-07T18:57:37.128Z,100212.41
2022-11-07T19:00:13.103Z,100221.75
2022-11-07T19:02:41.285Z,100211.06
2022-11-07T19:05:08.930Z,100212.38
2022-11-07T19:07:38.388Z,100214.31
2022-11-07T19:10:07.717Z,100219.03
2022-11-07T19:12:35.290Z,100211.84
2022-11-07T19:15:03.123Z,100215.75
2022-11-07T19:17:32.602Z,100216.34
2022-11-07T19:20:01.260Z,100212.94
2022-11-07T19:22:29.066Z,100210.81
2022-11-07T19:24:57.100Z,100209.50
2022-11-07T19:27:25.114Z,100210.34
2022-11-07T19:29:53.320Z,100215.28
2022-11-07T19:32:21.126Z,100207.88
2022-11-07T19:34:51.757Z,100210.88
2022-11-07T19:37:19.381Z,100222.44
2022-11-07T19:39:47.122Z,100219.63
2022-11-07T19:42:14.990Z,100220.34
2022-11-07T19:44:48.448Z,100212.84
2022-11-07T19:47:18.371Z,100206.81
2022-11-07T19:49:46.057Z,100202.56
2022-11-07T19:52:15.116Z,100206.53
2022-11-07T19:54:45.349Z,100209.69
2022-11-07T19:57:13.213Z,100211.44
2022-11-07T19:59:40.731Z,100210.25
2022-11-07T20:02:31.713Z,100218.91
2022-11-07T20:04:59.386Z,100221.03
2022-11-07T20:07:28.662Z,100215.81
2022-11-07T20:09:56.725Z,100209.47
2022-11-07T20:12:24.266Z,100215.81
2022-11-07T20:14:53.035Z,100215.81
2022-11-07T20:17:20.598Z,100214.84
2022-11-07T20:19:48.206Z,100216.47
2022-11-07T20:22:15.751Z,100221.84
2022-11-07T20:24:44.947Z,100217.16
2022-11-07T20:27:12.622Z,100219.25
2022-11-07T20:29:40.188Z,100221.38
2022-11-07T20:32:07.918Z,100228.88
2022-11-07T20:34:35.541Z,100226.50
2022-11-07T20:37:03.079Z,100228.16
2022-11-07T20:39:30.649Z,100230.19
2022-11-07T20:42:00.056Z,100235.38
2022-11-07T20:44:29.834Z,100238.09
2022-11-07T20:46:57.600Z,100251.81
2022-11-07T20:49:25.138Z,100254.53
2022-11-07T20:51:53.364Z,100246.72
2022-11-07T20:54:21.013Z,100243.59
2022-11-07T20:56:48.592Z,100244.63
2022-11-07T20:59:20.032Z,100245.25
2022-11-07T21:01:51.013Z,100244.50
2022-11-07T21:04:19.427Z,100245.66
2022-11-07T21:06:47.363Z,100242.47
2022-11-07T21:09:14.923Z,100253.97
2022-11-07T21:11:42.801Z,100255.78
2022-11-07T21:14:10.917Z,100258.81
2022-11-07T21:16:40.679Z,100261.47
2022-11-07T21:19:09.254Z,100256.28
2022-11-07T21:21:38.710Z,100262.47
2022-11-07T21:24:07.109Z,100258.72
2022-11-07T21:26:36.333Z,100252.84
2022-11-07T21:29:06.368Z,100257.75
2022-11-07T21:31:34.725Z,100258.59
2022-11-07T21:34:06.024Z,100253.41
2022-11-07T21:36:35.141Z,100254.78
2022-11-07T21:39:03.288Z,100259.78
2022-11-07T21:41:32.673Z,100257.66
2022-11-07T21:44:01.310Z,100251.03
2022-11-07T21:46:30.635Z,100247.63
2022-11-07T21:48:59.434Z,100239.72
2022-11-07T21:51:31.717Z,100238.19
2022-11-07T21:54:00.825Z,100236.75
2022-11-07T21:56:30.250Z,100241.38
2022-11-07T21:58:59.784Z,100240.25
2022-11-07T22:01:28.918Z,100242.13
2022-11-07T22:04:13.325Z,100233.91
2022-11-07T22:06:43.878Z,100238.59
2022-11-07T22:09:12.676Z,100240.47
2022-11-07T22:11:40.209Z,100234.19
2022-11-07T22:14:08.038Z,100240.47
2022-11-07T22:16:36.128Z,100228.09
2022-11-07T22:19:06.159Z,100242.22
2022-11-07T22:21:36.580Z,100241.41
2022-11-07T22:24:06.976Z,100238.38
2022-11-07T22:26:34.721Z,100243.06
2022-11-07T22:29:02.525Z,100238.63
2022-11-07T22:31:31.938Z,100231.50
2022-11-07T22:34:00.604Z,100236.66
2022-11-07T22:36:29.722Z,100235.69
2022-11-07T22:38:58.342Z,100229.75
2022-11-07T22:41:29.331Z,100232.53
2022-11-07T22:43:58.194Z,100229.19
2022-11-07T22:46:28.450Z,100230.44
2022-11-07T22:48:56.443Z,100224.09
2022-11-07T22:51:25.871Z,100230.22
2022-11-07T22:53:57.180Z,100237.28
2022-11-07T22:56:27.418Z,100228.09
2022-11-07T22:58:55.036Z,100234.31
2022-11-07T23:01:25.029Z,100226.25
2022-11-07T23:03:53.198Z,100221.38
2022-11-07T23:06:21.337Z,100220.25
2022-11-07T23:08:49.302Z,100222.09
2022-11-07T23:14:10.879Z,100212.25
2022-11-07T23:16:40.748Z,100212.75
2022-11-07T23:19:10.040Z,100211.63
2022-11-07T23:21:37.937Z,100205.34
2022-11-07T23:24:06.614Z,100212.00
2022-11-07T23:26:34.729Z,100200.69
2022-11-07T23:29:10.081Z,100192.72
2022-11-07T23:31:39.757Z,100208.03
2022-11-07T23:34:07.532Z,100208.53
2022-11-07T23:36:35.176Z,100204.16
2022-11-07T23:39:05.823Z,100208.50
2022-11-07T23:41:33.398Z,100204.44
2022-11-07T23:44:01.277Z,100210.94
2022-11-07T23:46:46.391Z,100208.88
2022-11-07T23:49:33.141Z,100213.97
2022-11-07T23:52:00.911Z,100205.41
2022-11-07T23:54:46.301Z,100211.34
2022-11-07T23:57:14.615Z,100210.50
